createdAt,value
2023-03-25T00:00:22.231Z,10.21
2023-03-25T00:03:10.987Z,10.19
2023-03-25T00:05:40.992Z,10.16
2023-03-25T00:08:10.330Z,10.10
2023-03-25T00:10:39.256Z,10.03
2023-03-25T00:13:07.992Z,9.97
2023-03-25T00:15:36.936Z,9.94
2023-03-25T00:18:06.217Z,9.90
2023-03-25T00:20:35.124Z,9.86
2023-03-25T00:23:03.827Z,9.84
2023-03-25T00:25:33.190Z,9.83
2023-03-25T00:28:02.832Z,9.84
2023-03-25T00:30:31.663Z,9.85
2023-03-25T00:33:01.178Z,9.85
2023-03-25T00:35:30.064Z,9.86
2023-03-25T00:38:00.975Z,9.86
2023-03-25T00:40:34.244Z,9.87
2023-03-25T00:43:04.415Z,9.84
2023-03-25T00:45:34.064Z,9.84
2023-03-25T00:48:04.501Z,9.82
2023-03-25T00:50:35.340Z,9.77
2023-03-25T00:53:04.289Z,9.74
2023-03-25T00:55:33.917Z,9.72
2023-03-25T00:58:05.341Z,9.69
2023-03-25T01:00:35.502Z,9.65
2023-03-25T01:03:04.486Z,9.63
2023-03-25T01:05:33.414Z,9.59
2023-03-25T01:08:02.067Z,9.57
2023-03-25T01:10:35.244Z,9.56
2023-03-25T01:13:04.420Z,9.53
2023-03-25T01:15:34.461Z,9.51
2023-03-25T01:18:03.263Z,9.51
2023-03-25T01:20:32.719Z,9.50
2023-03-25T01:23:01.652Z,9.47
2023-03-25T01:25:31.535Z,9.40
2023-03-25T01:28:00.491Z,9.35
2023-03-25T01:30:30.984Z,9.28
2023-03-25T01:33:00.269Z,9.19
2023-03-25T01:35:29.243Z,9.13
2023-03-25T01:37:57.883Z,9.08
2023-03-25T01:40:26.609Z,9.03
2023-03-25T01:42:55.485Z,8.98
2023-03-25T01:45:28.837Z,8.94
2023-03-25T01:48:06.032Z,8.91
2023-03-25T01:50:38.803Z,8.89
2023-03-25T01:53:09.103Z,8.84
2023-03-25T01:55:39.973Z,8.80
2023-03-25T01:58:16.030Z,8.78
2023-03-25T02:00:50.046Z,8.76
2023-03-25T02:03:21.981Z,8.75
2023-03-25T02:05:59.938Z,8.72
2023-03-25T02:08:33.005Z,8.67
2023-03-25T02:11:03.317Z,8.63
2023-03-25T02:13:33.689Z,8.60
2023-03-25T02:16:23.516Z,8.56
2023-03-25T02:19:06.140Z,8.49
2023-03-25T02:22:03.204Z,8.43
2023-03-25T02:25:04.198Z,8.39
2023-03-25T02:27:47.065Z,8.33
2023-03-25T02:30:55.382Z,8.29
2023-03-25T02:33:54.744Z,8.21
2023-03-25T02:36:56.639Z,8.17
2023-03-25T02:39:37.369Z,8.15
2023-03-25T02:42:17.778Z,8.09
2023-03-25T02:44:56.653Z,8.09
2023-03-25T02:47:31.714Z,8.13
2023-03-25T02:50:07.191Z,8.11
2023-03-25T02:52:40.095Z,8.11
2023-03-25T02:55:14.424Z,8.11
2023-03-25T02:57:47.056Z,8.10
2023-03-25T03:00:22.882Z,8.05
2023-03-25T03:02:59.479Z,8.00
2023-03-25T03:05:31.291Z,7.97
2023-03-25T03:08:18.346Z,7.94
2023-03-25T03:10:52.791Z,7.91
2023-03-25T03:13:35.260Z,7.88
2023-03-25T03:16:12.914Z,7.83
2023-03-25T03:18:51.495Z,7.78
2023-03-25T03:21:31.459Z,7.71
2023-03-25T03:24:07.283Z,7.72
2023-03-25T03:26:42.728Z,7.73
2023-03-25T03:29:18.118Z,7.68
2023-03-25T03:32:06.014Z,7.61
2023-03-25T03:34:45.859Z,7.58
2023-03-25T03:37:21.458Z,7.55
2023-03-25T03:39:52.466Z,7.51
2023-03-25T03:42:28.694Z,7.42
2023-03-25T03:45:02.568Z,7.35
2023-03-25T03:47:36.836Z,7.30
2023-03-25T03:50:10.686Z,7.25
2023-03-25T03:52:44.711Z,7.22
2023-03-25T03:55:18.570Z,7.17
2023-03-25T03:57:54.325Z,7.19
2023-03-25T04:00:29.219Z,7.26
2023-03-25T04:03:03.733Z,7.24
2023-03-25T04:05:36.356Z,7.18
2023-03-25T04:08:14.155Z,7.23
2023-03-25T04:10:52.092Z,7.28
2023-03-25T04:13:23.945Z,7.27
2023-03-25T04:15:52.774Z,7.23
2023-03-25T04:18:23.431Z,7.20
2023-03-25T04:20:52.089Z,7.21
2023-03-25T04:23:20.989Z,7.24
2023-03-25T04:25:52.744Z,7.26
2023-03-25T04:28:23.401Z,7.26
2023-03-25T04:30:55.239Z,7.24
2023-03-25T04:33:24.811Z,7.22
2023-03-25T04:35:54.886Z,7.21
2023-03-25T04:38:23.661Z,7.25
2023-03-25T04:40:53.344Z,7.24
2023-03-25T04:43:21.940Z,7.22
2023-03-25T04:45:54.597Z,7.28
2023-03-25T04:48:29.446Z,7.38
2023-03-25T04:51:01.293Z,7.41
2023-03-25T04:53:30.789Z,7.28
2023-03-25T04:55:59.642Z,7.15
2023-03-25T04:58:29.115Z,7.13
2023-03-25T05:01:05.496Z,7.16
2023-03-25T05:03:34.741Z,7.25
2023-03-25T05:06:03.741Z,7.35
2023-03-25T05:08:33.193Z,7.44
2023-03-25T05:11:02.646Z,7.51
2023-03-25T05:13:31.344Z,7.59
2023-03-25T05:16:00.223Z,7.69
2023-03-25T05:18:29.377Z,7.74
2023-03-25T05:21:00.364Z,7.79
2023-03-25T05:23:31.052Z,7.87
2023-03-25T05:26:01.120Z,7.95
2023-03-25T05:28:30.513Z,7.99
2023-03-25T05:30:59.692Z,8.01
2023-03-25T05:33:28.444Z,8.04
2023-03-25T05:35:58.638Z,8.05
2023-03-25T05:38:27.483Z,8.06
2023-03-25T05:40:57.548Z,8.08
2023-03-25T05:43:26.208Z,8.10
2023-03-25T05:45:55.346Z,8.13
2023-03-25T05:48:24.509Z,8.19
2023-03-25T05:50:56.167Z,8.28
2023-03-25T05:53:24.916Z,8.35
2023-03-25T05:55:54.503Z,8.42
2023-03-25T05:58:24.904Z,8.48
2023-03-25T06:00:54.127Z,8.49
2023-03-25T06:03:25.607Z,8.48
2023-03-25T06:05:54.986Z,8.51
2023-03-25T06:08:25.689Z,8.53
2023-03-25T06:10:58.208Z,8.54
2023-03-25T06:13:27.839Z,8.57
2023-03-25T06:15:57.629Z,8.61
2023-03-25T06:18:26.773Z,8.68
2023-03-25T06:20:57.217Z,8.77
2023-03-25T06:23:27.370Z,8.86
2023-03-25T06:25:58.035Z,8.96
2023-03-25T06:28:26.740Z,9.07
2023-03-25T06:30:56.587Z,9.18
2023-03-25T06:33:43.002Z,9.30
2023-03-25T06:36:18.789Z,9.45
2023-03-25T06:38:48.637Z,9.61
2023-03-25T06:41:19.788Z,9.79
2023-03-25T06:43:51.745Z,9.94
2023-03-25T06:46:42.274Z,10.02
2023-03-25T06:49:29.757Z,10.06
2023-03-25T06:52:02.367Z,10.05
2023-03-25T06:54:31.436Z,10.07
2023-03-25T06:57:04.918Z,10.11
2023-03-25T06:59:33.920Z,10.18
2023-03-25T07:02:03.739Z,10.23
2023-03-25T07:04:37.337Z,10.28
2023-03-25T07:07:07.509Z,10.33
2023-03-25T07:09:37.374Z,10.40
2023-03-25T07:12:09.237Z,10.39
2023-03-25T07:14:38.345Z,10.40
2023-03-25T07:17:07.881Z,10.45
2023-03-25T07:19:36.801Z,10.53
2023-03-25T07:22:05.978Z,10.68
2023-03-25T07:24:34.652Z,10.96
2023-03-25T07:27:04.148Z,11.19
2023-03-25T07:29:33.799Z,11.34
2023-03-25T07:32:04.194Z,11.48
2023-03-25T07:34:34.155Z,11.68
2023-03-25T07:37:04.230Z,11.96
2023-03-25T07:39:36.127Z,12.11
2023-03-25T07:42:07.002Z,12.28
2023-03-25T07:44:54.291Z,12.37
2023-03-25T07:47:24.180Z,12.45
2023-03-25T07:49:52.837Z,12.49
2023-03-25T07:52:22.935Z,12.58
2023-03-25T07:54:51.691Z,12.92
2023-03-25T07:57:21.892Z,13.33
2023-03-25T07:59:50.673Z,13.55
2023-03-25T08:02:22.051Z,13.58
2023-03-25T08:04:54.005Z,13.71
2023-03-25T08:07:22.836Z,13.93
2023-03-25T08:09:51.445Z,14.33
2023-03-25T08:12:22.869Z,14.85
2023-03-25T08:14:51.564Z,15.37
2023-03-25T08:17:21.769Z,16.16
2023-03-25T08:19:50.828Z,16.93
2023-03-25T08:22:20.528Z,17.42
2023-03-25T08:24:49.423Z,17.96
2023-03-25T08:27:19.220Z,18.51
2023-03-25T08:29:53.811Z,18.79
2023-03-25T08:32:23.067Z,18.93
2023-03-25T08:34:52.206Z,18.89
2023-03-25T08:37:21.849Z,18.60
2023-03-25T08:39:50.519Z,18.33
2023-03-25T08:42:22.826Z,18.06
2023-03-25T08:44:51.493Z,17.63
2023-03-25T08:47:22.891Z,17.37
2023-03-25T08:49:51.636Z,17.23
2023-03-25T08:52:21.100Z,17.17
2023-03-25T08:54:49.845Z,17.19
2023-03-25T08:57:21.116Z,17.36
2023-03-25T08:59:50.135Z,17.53
2023-03-25T09:02:21.294Z,17.43
2023-03-25T09:04:50.693Z,17.35
2023-03-25T09:07:22.577Z,17.45
2023-03-25T09:09:51.335Z,17.90
2023-03-25T09:12:21.254Z,18.39
2023-03-25T09:14:49.931Z,18.89
2023-03-25T09:17:20.276Z,18.96
2023-03-25T09:19:50.051Z,18.79
2023-03-25T09:22:20.737Z,18.75
2023-03-25T09:24:49.377Z,18.55
2023-03-25T09:27:20.143Z,18.25
2023-03-25T09:29:48.873Z,18.05
2023-03-25T09:32:18.214Z,18.00
2023-03-25T09:34:49.408Z,18.00
2023-03-25T09:37:18.548Z,17.91
2023-03-25T09:39:47.881Z,17.84
2023-03-25T09:42:36.318Z,17.80
2023-03-25T09:45:12.767Z,17.56
2023-03-25T09:47:46.936Z,17.22
2023-03-25T09:50:16.870Z,16.99
2023-03-25T09:52:52.913Z,16.80
2023-03-25T09:55:28.325Z,16.68
2023-03-25T09:58:03.046Z,16.71
2023-03-25T10:00:33.486Z,16.72
2023-03-25T10:03:13.879Z,16.70
2023-03-25T10:06:20.050Z,16.63
2023-03-25T10:09:10.044Z,16.59
2023-03-25T10:11:47.220Z,16.59
2023-03-25T10:14:25.165Z,16.51
2023-03-25T10:17:08.349Z,16.37
2023-03-25T10:19:53.773Z,16.56
2023-03-25T10:22:27.118Z,16.88
2023-03-25T10:24:59.472Z,17.14
2023-03-25T10:27:34.403Z,17.43
2023-03-25T10:30:13.039Z,17.65
2023-03-25T10:32:46.504Z,17.60
2023-03-25T10:35:21.093Z,17.45
2023-03-25T10:37:53.403Z,17.37
2023-03-25T10:40:29.817Z,17.44
2023-03-25T10:43:18.311Z,17.57
2023-03-25T10:45:50.053Z,17.67
2023-03-25T10:48:23.995Z,17.73
2023-03-25T10:50:56.050Z,17.74
2023-03-25T10:53:27.493Z,17.75
2023-03-25T10:55:59.434Z,17.63
2023-03-25T10:58:29.316Z,17.45
2023-03-25T11:00:59.385Z,17.24
2023-03-25T11:03:34.331Z,16.99
2023-03-25T11:06:18.351Z,16.76
2023-03-25T11:09:13.247Z,16.71
2023-03-25T11:11:43.336Z,16.78
2023-03-25T11:14:12.436Z,16.80
2023-03-25T11:16:47.237Z,16.80
2023-03-25T11:19:25.351Z,16.77
2023-03-25T11:22:02.642Z,16.86
2023-03-25T11:24:34.709Z,16.90
2023-03-25T11:27:08.784Z,16.79
2023-03-25T11:29:39.448Z,16.65
2023-03-25T11:32:13.921Z,16.53
2023-03-25T11:34:53.426Z,16.44
2023-03-25T11:37:27.268Z,16.45
2023-03-25T11:40:05.668Z,16.41
2023-03-25T11:42:39.275Z,16.34
2023-03-25T11:45:23.776Z,16.26
2023-03-25T11:48:01.265Z,16.14
2023-03-25T11:50:36.099Z,16.02
2023-03-25T11:53:06.248Z,15.91
2023-03-25T11:55:43.898Z,15.84
2023-03-25T11:58:17.581Z,15.72
2023-03-25T12:00:49.301Z,15.56
2023-03-25T12:03:30.506Z,15.41
2023-03-25T12:06:03.947Z,15.29
2023-03-25T12:08:43.690Z,15.22
2023-03-25T12:11:16.959Z,15.20
2023-03-25T12:14:05.417Z,15.18
2023-03-25T12:16:52.190Z,15.23
2023-03-25T12:19:31.595Z,15.33
2023-03-25T12:22:14.015Z,15.35
2023-03-25T12:24:59.431Z,15.34
2023-03-25T12:27:40.910Z,15.31
2023-03-25T12:30:25.230Z,15.29
2023-03-25T12:33:08.779Z,15.30
2023-03-25T12:35:46.728Z,15.30
2023-03-25T12:38:28.567Z,15.28
2023-03-25T12:41:11.703Z,15.29
2023-03-25T12:43:57.572Z,15.31
2023-03-25T12:46:54.254Z,15.33
2023-03-25T12:49:50.224Z,15.35
2023-03-25T12:52:27.572Z,15.41
2023-03-25T12:55:10.050Z,15.41
2023-03-25T12:57:51.920Z,15.34
2023-03-25T13:00:41.421Z,15.22
2023-03-25T13:03:44.557Z,15.01
2023-03-25T13:06:32.942Z,14.71
2023-03-25T13:09:07.904Z,14.46
2023-03-25T13:11:40.971Z,14.27
2023-03-25T13:14:17.775Z,14.15
2023-03-25T13:16:52.220Z,13.99
2023-03-25T13:19:27.004Z,13.83
2023-03-25T13:22:04.004Z,13.68
2023-03-25T13:24:45.727Z,13.59
2023-03-25T13:27:16.640Z,13.53
2023-03-25T13:29:52.458Z,13.44
2023-03-25T13:32:26.492Z,13.34
2023-03-25T13:35:00.899Z,13.26
2023-03-25T13:37:37.103Z,13.18
2023-03-25T13:40:27.275Z,13.11
2023-03-25T13:43:02.618Z,13.10
2023-03-25T13:45:47.721Z,13.13
2023-03-25T13:48:27.964Z,13.17
2023-03-25T13:51:04.012Z,13.21
2023-03-25T13:53:38.543Z,13.24
2023-03-25T13:56:46.347Z,13.31
2023-03-25T13:59:44.383Z,13.41
2023-03-25T14:02:57.404Z,13.47
2023-03-25T14:05:43.712Z,13.48
2023-03-25T14:08:35.484Z,13.49
2023-03-25T14:11:19.224Z,13.54
2023-03-25T14:13:56.690Z,13.66
2023-03-25T14:16:36.642Z,13.82
2023-03-25T14:19:11.452Z,13.95
2023-03-25T14:21:44.244Z,14.05
2023-03-25T14:24:23.176Z,14.15
2023-03-25T14:27:01.135Z,14.20
2023-03-25T14:29:40.308Z,14.19
2023-03-25T14:32:34.711Z,14.16
2023-03-25T14:35:40.993Z,14.10
2023-03-25T14:38:50.309Z,14.03
2023-03-25T14:42:01.689Z,13.93
2023-03-25T14:44:33.020Z,13.82
2023-03-25T14:47:31.528Z,13.73
2023-03-25T14:50:27.336Z,13.55
2023-03-25T14:53:07.114Z,13.27
2023-03-25T14:55:46.421Z,12.89
2023-03-25T14:58:28.854Z,12.47
2023-03-25T15:01:03.852Z,12.08
2023-03-25T15:03:37.050Z,11.75
2023-03-25T15:06:15.121Z,11.49
2023-03-25T15:08:54.353Z,11.22
2023-03-25T15:11:31.321Z,10.92
2023-03-25T15:14:05.345Z,10.67
2023-03-25T15:16:38.938Z,10.47
2023-03-25T15:19:10.667Z,10.30
2023-03-25T15:22:15.582Z,10.19
2023-03-25T15:24:51.599Z,10.11
2023-03-25T15:27:33.642Z,10.04
2023-03-25T15:30:12.210Z,9.98
2023-03-25T15:32:55.864Z,9.92
2023-03-25T15:35:36.187Z,9.86
2023-03-25T15:38:34.609Z,9.79
2023-03-25T15:41:23.053Z,9.72
2023-03-25T15:44:19.458Z,9.64
2023-03-25T15:47:22.856Z,9.54
2023-03-25T15:50:14.025Z,9.49
2023-03-25T15:52:59.734Z,9.47
2023-03-25T15:55:31.458Z,9.46
2023-03-25T15:58:04.814Z,9.47
2023-03-25T16:00:38.123Z,9.49
2023-03-25T16:03:14.397Z,9.54
2023-03-25T16:05:50.904Z,9.60
2023-03-25T16:08:25.993Z,9.65
2023-03-25T16:10:55.662Z,9.71
2023-03-25T16:13:24.595Z,9.76
2023-03-25T16:15:57.970Z,9.78
2023-03-25T16:18:26.979Z,9.79
2023-03-25T16:20:59.203Z,9.79
2023-03-25T16:23:30.163Z,9.74
2023-03-25T16:25:58.845Z,9.66
2023-03-25T16:28:31.522Z,9.57
2023-03-25T16:31:02.268Z,9.50
2023-03-25T16:33:38.062Z,9.47
2023-03-25T16:36:16.345Z,9.42
2023-03-25T16:38:49.944Z,9.37
2023-03-25T16:41:20.066Z,9.32
2023-03-25T16:43:53.236Z,9.26
2023-03-25T16:46:23.784Z,9.23
2023-03-25T16:48:54.021Z,9.21
2023-03-25T16:51:32.013Z,9.19
2023-03-25T16:54:09.088Z,9.17
2023-03-25T16:56:40.937Z,9.13
2023-03-25T16:59:22.448Z,9.08
2023-03-25T17:01:58.136Z,9.00
2023-03-25T17:04:38.756Z,8.92
2023-03-25T17:07:15.834Z,8.85
2023-03-25T17:09:52.558Z,8.82
2023-03-25T17:12:25.978Z,8.79
2023-03-25T17:15:09.493Z,8.78
2023-03-25T17:17:48.453Z,8.72
2023-03-25T17:20:22.054Z,8.70
2023-03-25T17:23:07.363Z,8.66
2023-03-25T17:25:50.068Z,8.62
2023-03-25T17:28:28.514Z,8.59
2023-03-25T17:30:57.510Z,8.55
2023-03-25T17:33:33.850Z,8.50
2023-03-25T17:36:08.458Z,8.43
2023-03-25T17:38:44.354Z,8.37
2023-03-25T17:41:15.234Z,8.34
2023-03-25T17:43:47.591Z,8.30
2023-03-25T17:46:21.984Z,8.28
2023-03-25T17:48:52.855Z,8.28
2023-03-25T17:51:24.550Z,8.30
2023-03-25T17:53:54.496Z,8.32
2023-03-25T17:56:28.533Z,8.35
2023-03-25T17:59:01.006Z,8.37
2023-03-25T18:01:35.543Z,8.41
2023-03-25T18:04:05.157Z,8.44
2023-03-25T18:06:33.946Z,8.46
2023-03-25T18:09:04.160Z,8.47
2023-03-25T18:11:33.469Z,8.52
2023-03-25T18:14:05.507Z,8.54
2023-03-25T18:17:00.921Z,8.55
2023-03-25T18:19:31.463Z,8.56
2023-03-25T18:22:17.404Z,8.56
2023-03-25T18:24:50.340Z,8.55
2023-03-25T18:27:22.160Z,8.51
2023-03-25T18:29:56.747Z,8.48
2023-03-25T18:32:25.737Z,8.48
2023-03-25T18:34:55.112Z,8.47
2023-03-25T18:37:24.648Z,8.46
2023-03-25T18:39:54.119Z,8.44
2023-03-25T18:42:23.829Z,8.43
2023-03-25T18:44:55.412Z,8.39
2023-03-25T18:47:24.735Z,8.34
2023-03-25T18:49:54.985Z,8.28
2023-03-25T18:52:24.807Z,8.23
2023-03-25T18:54:53.966Z,8.19
2023-03-25T18:57:25.025Z,8.15
2023-03-25T18:59:53.988Z,8.13
2023-03-25T19:02:24.021Z,8.11
2023-03-25T19:05:00.607Z,8.10
2023-03-25T19:07:30.041Z,8.10
2023-03-25T19:09:59.222Z,8.10
2023-03-25T19:12:28.073Z,8.10
2023-03-25T19:14:56.990Z,8.09
2023-03-25T19:17:26.131Z,8.08
2023-03-25T19:19:57.443Z,8.05
2023-03-25T19:22:26.253Z,8.04
2023-03-25T19:24:55.230Z,8.04
2023-03-25T19:27:24.207Z,8.02
2023-03-25T19:29:54.707Z,8.00
2023-03-25T19:32:23.865Z,7.97
2023-03-25T19:34:55.965Z,7.93
2023-03-25T19:37:26.150Z,7.90
2023-03-25T19:39:55.661Z,7.85
2023-03-25T19:42:26.726Z,7.82
2023-03-25T19:44:58.062Z,7.78
2023-03-25T19:47:26.904Z,7.75
2023-03-25T19:49:55.985Z,7.74
2023-03-25T19:52:25.929Z,7.73
2023-03-25T19:54:55.378Z,7.72
2023-03-25T19:57:24.691Z,7.74
2023-03-25T19:59:53.874Z,7.74
2023-03-25T20:02:23.904Z,7.72
2023-03-25T20:04:53.739Z,7.67
2023-03-25T20:07:25.859Z,7.62
2023-03-25T20:09:55.090Z,7.57
2023-03-25T20:12:24.517Z,7.51
2023-03-25T20:14:53.461Z,7.42
2023-03-25T20:17:25.578Z,7.36
2023-03-25T20:19:54.602Z,7.32
2023-03-25T20:22:24.936Z,7.27
2023-03-25T20:24:55.568Z,7.23
2023-03-25T20:27:25.637Z,7.18
2023-03-25T20:29:54.782Z,7.14
2023-03-25T20:32:37.426Z,7.14
2023-03-25T20:35:12.989Z,7.15
2023-03-25T20:37:43.805Z,7.14
2023-03-25T20:40:19.135Z,7.07
2023-03-25T20:42:50.692Z,7.03
2023-03-25T20:45:22.139Z,6.99
2023-03-25T20:47:51.518Z,6.93
2023-03-25T20:50:22.218Z,6.87
2023-03-25T20:52:50.990Z,6.81
2023-03-25T20:55:23.373Z,6.76
2023-03-25T20:57:52.534Z,6.73
2023-03-25T21:00:22.193Z,6.72
2023-03-25T21:02:51.918Z,6.69
2023-03-25T21:05:21.985Z,6.68
2023-03-25T21:07:50.709Z,6.67
2023-03-25T21:10:20.932Z,6.69
2023-03-25T21:12:50.177Z,6.67
2023-03-25T21:15:19.285Z,6.52
2023-03-25T21:17:48.205Z,6.44
2023-03-25T21:20:21.790Z,6.41
2023-03-25T21:22:51.034Z,6.40
2023-03-25T21:25:20.396Z,6.37
2023-03-25T21:27:50.861Z,6.33
2023-03-25T21:30:20.044Z,6.29
2023-03-25T21:32:50.915Z,6.24
2023-03-25T21:35:20.197Z,6.19
2023-03-25T21:37:51.204Z,6.18
2023-03-25T21:40:21.928Z,6.19
2023-03-25T21:42:50.651Z,6.19
2023-03-25T21:45:22.025Z,6.19
2023-03-25T21:47:54.415Z,6.19
2023-03-25T21:50:25.691Z,6.19
2023-03-25T21:52:54.833Z,6.20
2023-03-25T21:55:26.869Z,6.23
2023-03-25T21:57:55.614Z,6.22
2023-03-25T22:00:25.229Z,6.18
2023-03-25T22:02:57.825Z,6.11
2023-03-25T22:05:31.618Z,6.05
2023-03-25T22:08:00.411Z,5.99
2023-03-25T22:10:29.245Z,5.95
2023-03-25T22:12:57.882Z,5.93
2023-03-25T22:15:26.604Z,5.91
2023-03-25T22:17:55.340Z,5.93
2023-03-25T22:20:24.681Z,5.96
2023-03-25T22:22:53.547Z,6.00
2023-03-25T22:25:23.432Z,6.05
2023-03-25T22:27:52.132Z,6.11
2023-03-25T22:30:23.072Z,6.18
2023-03-25T22:32:52.264Z,6.24
2023-03-25T22:35:28.166Z,6.31
2023-03-25T22:37:57.322Z,6.38
2023-03-25T22:40:28.245Z,6.44
2023-03-25T22:42:57.011Z,6.48
2023-03-25T22:45:26.075Z,6.51
2023-03-25T22:47:55.252Z,6.54
2023-03-25T22:50:25.007Z,6.55
2023-03-25T22:52:53.705Z,6.53
2023-03-25T22:55:25.136Z,6.52
2023-03-25T22:57:53.854Z,6.51
2023-03-25T23:00:26.300Z,6.50
2023-03-25T23:02:55.058Z,6.51
2023-03-25T23:05:24.142Z,6.54
2023-03-25T23:07:52.909Z,6.57
2023-03-25T23:10:22.695Z,6.60
2023-03-25T23:12:51.725Z,6.64
2023-03-25T23:15:22.342Z,6.68
2023-03-25T23:17:51.623Z,6.73
2023-03-25T23:20:22.967Z,6.78
2023-03-25T23:22:54.129Z,6.83
2023-03-25T23:25:24.445Z,6.87
2023-03-25T23:27:57.390Z,6.87
2023-03-25T23:30:26.834Z,6.85
2023-03-25T23:32:55.902Z,6.82
2023-03-25T23:35:25.432Z,6.81
2023-03-25T23:37:54.525Z,6.79
2023-03-25T23:40:25.310Z,6.80
2023-03-25T23:42:54.330Z,6.81
2023-03-25T23:45:29.481Z,6.84
2023-03-25T23:47:58.229Z,6.87
2023-03-25T23:50:27.096Z,6.87
2023-03-25T23:52:56.271Z,6.87
2023-03-25T23:55:25.481Z,6.86
2023-03-25T23:57:54.973Z,6.81
